sensor_id;sensor_type;location;lat;lon;timestamp;pressure;altitude;pressure_sealevel;temperature;humidity
74936;BME280;63501;55.570;37.488;2023-05-14T00:02:25;99585.00;;;13.35;44.96
74936;BME280;63501;55.570;37.488;2023-05-14T00:04:52;99577.91;;;13.31;45.04
74936;BME280;63501;55.570;37.488;2023-05-14T00:07:21;99585.88;;;13.25;44.69
74936;BME280;63501;55.570;37.488;2023-05-14T00:09:48;99582.72;;;13.19;45.38
74936;BME280;63501;55.570;37.488;2023-05-14T00:12:15;99591.47;;;13.14;45.03
74936;BME280;63501;55.570;37.488;2023-05-14T00:14:42;99590.69;;;13.10;45.37
74936;BME280;63501;55.570;37.488;2023-05-14T00:17:09;99595.44;;;13.10;45.75
74936;BME280;63501;55.570;37.488;2023-05-14T00:19:36;99583.56;;;13.06;46.00
74936;BME280;63501;55.570;37.488;2023-05-14T00:22:06;99597.06;;;13.04;45.85
74936;BME280;63501;55.570;37.488;2023-05-14T00:24:35;99591.94;;;12.98;45.95
74936;BME280;63501;55.570;37.488;2023-05-14T00:27:02;99590.78;;;12.92;46.00
74936;BME280;63501;55.570;37.488;2023-05-14T00:29:29;99586.84;;;12.86;46.15
74936;BME280;63501;55.570;37.488;2023-05-14T00:31:56;99593.19;;;12.83;46.39
74936;BME280;63501;55.570;37.488;2023-05-14T00:34:23;99589.63;;;12.79;46.35
74936;BME280;63501;55.570;37.488;2023-05-14T00:36:50;99595.22;;;12.76;46.56
74936;BME280;63501;55.570;37.488;2023-05-14T00:39:17;99586.91;;;12.72;46.93
74936;BME280;63501;55.570;37.488;2023-05-14T00:41:46;99593.66;;;12.67;46.95
74936;BME280;63501;55.570;37.488;2023-05-14T00:44:13;99594.06;;;12.66;46.82
74936;BME280;63501;55.570;37.488;2023-05-14T00:46:39;99595.66;;;12.60;47.34
74936;BME280;63501;55.570;37.488;2023-05-14T00:49:08;99594.88;;;12.56;47.40
74936;BME280;63501;55.570;37.488;2023-05-14T00:51:35;99607.97;;;12.52;47.49
74936;BME280;63501;55.570;37.488;2023-05-14T00:54:03;99598.88;;;12.48;47.39
74936;BME280;63501;55.570;37.488;2023-05-14T00:56:30;99598.09;;;12.43;47.81
74936;BME280;63501;55.570;37.488;2023-05-14T00:58:58;99595.72;;;12.38;47.90
74936;BME280;63501;55.570;37.488;2023-05-14T01:01:25;99607.63;;;12.35;47.83
74936;BME280;63501;55.570;37.488;2023-05-14T01:03:53;99606.03;;;12.31;48.21
74936;BME280;63501;55.570;37.488;2023-05-14T01:06:26;99598.91;;;12.26;48.22
74936;BME280;63501;55.570;37.488;2023-05-14T01:09:00;99606.84;;;12.24;48.58
74936;BME280;63501;55.570;37.488;2023-05-14T01:11:32;99600.50;;;12.20;48.42
74936;BME280;63501;55.570;37.488;2023-05-14T01:14:16;99604.84;;;12.17;48.62
74936;BME280;63501;55.570;37.488;2023-05-14T01:16:46;99602.09;;;12.10;48.24
74936;BME280;63501;55.570;37.488;2023-05-14T01:19:21;99606.06;;;12.09;48.35
74936;BME280;63501;55.570;37.488;2023-05-14T01:21:51;99617.94;;;12.06;48.25
74936;BME280;63501;55.570;37.488;2023-05-14T01:24:18;99619.94;;;12.02;48.61
74936;BME280;63501;55.570;37.488;2023-05-14T01:26:45;99616.38;;;11.98;48.83
74936;BME280;63501;55.570;37.488;2023-05-14T01:29:18;99610.81;;;11.95;49.19
74936;BME280;63501;55.570;37.488;2023-05-14T01:31:46;99619.53;;;11.89;49.44
74936;BME280;63501;55.570;37.488;2023-05-14T01:34:15;99618.75;;;11.85;49.51
74936;BME280;63501;55.570;37.488;2023-05-14T01:36:42;99625.44;;;11.81;49.75
74936;BME280;63501;55.570;37.488;2023-05-14T01:39:12;99628.22;;;11.77;49.79
74936;BME280;63501;55.570;37.488;2023-05-14T01:41:41;99629.41;;;11.76;49.96
74936;BME280;63501;55.570;37.488;2023-05-14T01:44:08;99629.00;;;11.74;50.30
74936;BME280;63501;55.570;37.488;2023-05-14T01:46:35;99634.13;;;11.72;50.05
74936;BME280;63501;55.570;37.488;2023-05-14T01:49:02;99629.38;;;11.73;50.16
74936;BME280;63501;55.570;37.488;2023-05-14T01:51:29;99628.22;;;11.70;50.18
74936;BME280;63501;55.570;37.488;2023-05-14T01:53:56;99629.41;;;11.69;50.69
74936;BME280;63501;55.570;37.488;2023-05-14T01:56:25;99623.44;;;11.67;50.33
74936;BME280;63501;55.570;37.488;2023-05-14T01:58:52;99632.94;;;11.66;50.71
74936;BME280;63501;55.570;37.488;2023-05-14T02:01:20;99631.75;;;11.67;50.81
74936;BME280;63501;55.570;37.488;2023-05-14T02:03:47;99628.59;;;11.65;50.90
74936;BME280;63501;55.570;37.488;2023-05-14T02:06:14;99632.56;;;11.64;50.86
74936;BME280;63501;55.570;37.488;2023-05-14T02:08:41;99630.97;;;11.63;50.87
74936;BME280;63501;55.570;37.488;2023-05-14T02:11:08;99627.41;;;11.62;51.15
74936;BME280;63501;55.570;37.488;2023-05-14T02:13:37;99629.00;;;11.63;51.11
74936;BME280;63501;55.570;37.488;2023-05-14T02:16:05;99634.53;;;11.63;51.40
74936;BME280;63501;55.570;37.488;2023-05-14T02:18:32;99628.59;;;11.65;51.00
74936;BME280;63501;55.570;37.488;2023-05-14T02:20:59;99636.91;;;11.65;51.57
74936;BME280;63501;55.570;37.488;2023-05-14T02:23:26;99632.94;;;11.66;51.31
74936;BME280;63501;55.570;37.488;2023-05-14T02:25:53;99628.97;;;11.67;51.34
74936;BME280;63501;55.570;37.488;2023-05-14T02:28:20;99644.81;;;11.70;51.20
74936;BME280;63501;55.570;37.488;2023-05-14T02:30:48;99642.44;;;11.72;51.35
74936;BME280;63501;55.570;37.488;2023-05-14T02:33:15;99642.44;;;11.72;51.68
74936;BME280;63501;55.570;37.488;2023-05-14T02:35:42;99638.50;;;11.73;51.28
74936;BME280;63501;55.570;37.488;2023-05-14T02:38:09;99635.34;;;11.75;51.33
74936;BME280;63501;55.570;37.488;2023-05-14T02:40:36;99645.63;;;11.78;51.54
74936;BME280;63501;55.570;37.488;2023-05-14T02:43:03;99648.81;;;11.80;51.29
74936;BME280;63501;55.570;37.488;2023-05-14T02:45:30;99653.56;;;11.83;51.13
74936;BME280;63501;55.570;37.488;2023-05-14T02:47:59;99650.03;;;11.86;51.56
74936;BME280;63501;55.570;37.488;2023-05-14T02:50:26;99648.84;;;11.90;51.46
74936;BME280;63501;55.570;37.488;2023-05-14T02:52:53;99650.41;;;11.95;51.33
74936;BME280;63501;55.570;37.488;2023-05-14T02:55:20;99648.44;;;12.03;51.41
74936;BME280;63501;55.570;37.488;2023-05-14T02:57:47;99651.19;;;12.10;51.12
74936;BME280;63501;55.570;37.488;2023-05-14T03:00:14;99647.66;;;12.13;51.52
74936;BME280;63501;55.570;37.488;2023-05-14T03:02:41;99657.53;;;12.17;50.75
74936;BME280;63501;55.570;37.488;2023-05-14T03:05:10;99655.16;;;12.23;50.68
74936;BME280;63501;55.570;37.488;2023-05-14T03:07:37;99658.72;;;12.31;50.85
74936;BME280;63501;55.570;37.488;2023-05-14T03:10:05;99652.00;;;12.35;50.46
74936;BME280;63501;55.570;37.488;2023-05-14T03:12:32;99649.19;;;12.42;50.68
74936;BME280;63501;55.570;37.488;2023-05-14T03:14:59;99648.38;;;12.45;50.69
74936;BME280;63501;55.570;37.488;2023-05-14T03:17:26;99657.91;;;12.48;50.56
74936;BME280;63501;55.570;37.488;2023-05-14T03:19:53;99661.09;;;12.47;50.55
74936;BME280;63501;55.570;37.488;2023-05-14T03:22:22;99662.25;;;12.45;50.66
74936;BME280;63501;55.570;37.488;2023-05-14T03:24:49;99660.69;;;12.48;50.49
74936;BME280;63501;55.570;37.488;2023-05-14T03:27:16;99663.03;;;12.50;50.65
74936;BME280;63501;55.570;37.488;2023-05-14T03:29:43;99667.81;;;12.53;50.72
74936;BME280;63501;55.570;37.488;2023-05-14T03:32:10;99661.84;;;12.58;50.43
74936;BME280;63501;55.570;37.488;2023-05-14T03:34:37;99670.56;;;12.63;50.42
74936;BME280;63501;55.570;37.488;2023-05-14T03:37:04;99657.47;;;12.64;49.97
74936;BME280;63501;55.570;37.488;2023-05-14T03:39:33;99662.63;;;12.69;50.37
74936;BME280;63501;55.570;37.488;2023-05-14T03:42:00;99663.00;;;12.71;49.93
74936;BME280;63501;55.570;37.488;2023-05-14T03:44:27;99661.81;;;12.72;50.44
74936;BME280;63501;55.570;37.488;2023-05-14T03:46:54;99664.16;;;12.77;50.36
74936;BME280;63501;55.570;37.488;2023-05-14T03:49:21;99668.91;;;12.84;49.95
74936;BME280;63501;55.570;37.488;2023-05-14T03:51:48;99671.69;;;12.87;49.99
74936;BME280;63501;55.570;37.488;2023-05-14T03:54:15;99667.28;;;12.93;49.88
74936;BME280;63501;55.570;37.488;2023-05-14T03:56:44;99662.91;;;13.03;49.65
74936;BME280;63501;55.570;37.488;2023-05-14T03:59:11;99676.38;;;13.05;49.79
74936;BME280;63501;55.570;37.488;2023-05-14T04:01:38;99671.19;;;13.07;49.58
74936;BME280;63501;55.570;37.488;2023-05-14T04:04:05;99674.34;;;13.12;49.62
74936;BME280;63501;55.570;37.488;2023-05-14T04:06:32;99669.97;;;13.18;49.56
74936;BME280;63501;55.570;37.488;2023-05-14T04:08:59;99669.19;;;13.21;49.76
74936;BME280;63501;55.570;37.488;2023-05-14T04:11:26;99678.69;;;13.31;49.58
74936;BME280;63501;55.570;37.488;2023-05-14T04:13:55;99675.47;;;13.36;49.32
74936;BME280;63501;55.570;37.488;2023-05-14T04:16:22;99677.00;;;13.44;49.08
74936;BME280;63501;55.570;37.488;2023-05-14T04:18:49;99673.41;;;13.51;49.58
74936;BME280;63501;55.570;37.488;2023-05-14T04:21:16;99679.31;;;13.57;49.04
74936;BME280;63501;55.570;37.488;2023-05-14T04:23:43;99682.88;;;13.61;48.92
74936;BME280;63501;55.570;37.488;2023-05-14T04:26:11;99681.66;;;13.62;48.98
74936;BME280;63501;55.570;37.488;2023-05-14T04:28:38;99676.09;;;13.65;48.45
74936;BME280;63501;55.570;37.488;2023-05-14T04:31:07;99684.81;;;13.71;48.88
74936;BME280;63501;55.570;37.488;2023-05-14T04:33:34;99685.53;;;13.79;49.07
74936;BME280;63501;55.570;37.488;2023-05-14T04:36:01;99680.75;;;13.79;48.62
74936;BME280;63501;55.570;37.488;2023-05-14T04:38:29;99688.34;;;13.75;48.66
74936;BME280;63501;55.570;37.488;2023-05-14T04:40:56;99692.28;;;13.77;49.04
74936;BME280;63501;55.570;37.488;2023-05-14T04:43:24;99687.88;;;13.84;48.36
74936;BME280;63501;55.570;37.488;2023-05-14T04:45:50;99687.41;;;13.96;48.39
74936;BME280;63501;55.570;37.488;2023-05-14T04:48:19;99682.59;;;14.03;47.73
74936;BME280;63501;55.570;37.488;2023-05-14T04:50:46;99676.19;;;14.07;48.43
74936;BME280;63501;55.570;37.488;2023-05-14T04:53:13;99677.34;;;14.13;47.85
74936;BME280;63501;55.570;37.488;2023-05-14T04:55:40;99680.81;;;14.24;48.24
74936;BME280;63501;55.570;37.488;2023-05-14T04:58:07;99689.47;;;14.37;48.05
74936;BME280;63501;55.570;37.488;2023-05-14T05:00:34;99677.50;;;14.40;48.01
74936;BME280;63501;55.570;37.488;2023-05-14T05:03:01;99670.38;;;14.35;47.02
74936;BME280;63501;55.570;37.488;2023-05-14T05:05:30;99680.25;;;14.43;46.99
74936;BME280;63501;55.570;37.488;2023-05-14T05:07:57;99684.28;;;14.39;46.89
74936;BME280;63501;55.570;37.488;2023-05-14T05:10:24;99682.63;;;14.48;47.76
74936;BME280;63501;55.570;37.488;2023-05-14T05:12:51;99688.03;;;14.63;47.13
74936;BME280;63501;55.570;37.488;2023-05-14T05:15:18;99684.72;;;14.75;46.47
74936;BME280;63501;55.570;37.488;2023-05-14T05:17:45;99685.47;;;14.82;46.15
74936;BME280;63501;55.570;37.488;2023-05-14T05:20:12;99682.97;;;14.92;46.25
74936;BME280;63501;55.570;37.488;2023-05-14T05:22:40;99682.50;;;14.97;46.03
74936;BME280;63501;55.570;37.488;2023-05-14T05:25:08;99691.59;;;15.04;45.66
74936;BME280;63501;55.570;37.488;2023-05-14T05:27:36;99684.41;;;15.03;45.72
74936;BME280;63501;55.570;37.488;2023-05-14T05:30:04;99685.63;;;15.02;45.84
74936;BME280;63501;55.570;37.488;2023-05-14T05:32:32;99688.38;;;15.06;46.43
74936;BME280;63501;55.570;37.488;2023-05-14T05:34:59;99691.84;;;15.14;45.57
74936;BME280;63501;55.570;37.488;2023-05-14T05:37:26;99690.91;;;15.27;45.97
74936;BME280;63501;55.570;37.488;2023-05-14T05:39:54;99685.59;;;15.37;45.49
74936;BME280;63501;55.570;37.488;2023-05-14T05:42:21;99682.31;;;15.45;45.33
74936;BME280;63501;55.570;37.488;2023-05-14T05:44:48;99683.75;;;15.57;45.07
74936;BME280;63501;55.570;37.488;2023-05-14T05:47:15;99685.19;;;15.69;44.31
74936;BME280;63501;55.570;37.488;2023-05-14T05:49:42;99681.09;;;15.77;44.96
74936;BME280;63501;55.570;37.488;2023-05-14T05:52:09;99678.69;;;15.79;45.25
74936;BME280;63501;55.570;37.488;2023-05-14T05:54:37;99681.97;;;15.70;44.51
74936;BME280;63501;55.570;37.488;2023-05-14T05:57:05;99684.88;;;15.63;44.81
74936;BME280;63501;55.570;37.488;2023-05-14T05:59:33;99678.84;;;15.68;44.72
74936;BME280;63501;55.570;37.488;2023-05-14T06:02:00;99676.47;;;15.67;45.03
74936;BME280;63501;55.570;37.488;2023-05-14T06:04:27;99686.41;;;15.68;45.06
74936;BME280;63501;55.570;37.488;2023-05-14T06:06:54;99677.31;;;15.64;44.34
74936;BME280;63501;55.570;37.488;2023-05-14T06:09:21;99683.28;;;15.66;43.83
74936;BME280;63501;55.570;37.488;2023-05-14T06:11:48;99683.88;;;15.77;44.52
74936;BME280;63501;55.570;37.488;2023-05-14T06:14:17;99680.09;;;15.91;43.88
74936;BME280;63501;55.570;37.488;2023-05-14T06:16:44;99686.09;;;15.89;43.45
74936;BME280;63501;55.570;37.488;2023-05-14T06:19:11;99685.34;;;15.85;43.36
74936;BME280;63501;55.570;37.488;2023-05-14T06:21:38;99682.09;;;15.90;42.97
74936;BME280;63501;55.570;37.488;2023-05-14T06:24:06;99677.94;;;16.02;43.43
74936;BME280;63501;55.570;37.488;2023-05-14T06:26:33;99676.19;;;16.11;42.79
74936;BME280;63501;55.570;37.488;2023-05-14T06:29:23;99678.19;;;16.11;42.64
74936;BME280;63501;55.570;37.488;2023-05-14T06:31:50;99681.28;;;16.17;42.35
74936;BME280;63501;55.570;37.488;2023-05-14T06:34:18;99675.88;;;16.29;42.79
74936;BME280;63501;55.570;37.488;2023-05-14T06:36:45;99674.19;;;16.35;41.97
74936;BME280;63501;55.570;37.488;2023-05-14T06:39:12;99675.81;;;16.33;42.53
74936;BME280;63501;55.570;37.488;2023-05-14T06:41:39;99682.50;;;16.39;42.50
74936;BME280;63501;55.570;37.488;2023-05-14T06:44:06;99674.13;;;16.39;42.07
74936;BME280;63501;55.570;37.488;2023-05-14T06:46:35;99674.97;;;16.36;42.64
74936;BME280;63501;55.570;37.488;2023-05-14T06:49:02;99670.34;;;16.49;42.48
74936;BME280;63501;55.570;37.488;2023-05-14T06:51:29;99681.16;;;16.71;41.81
74936;BME280;63501;55.570;37.488;2023-05-14T06:53:57;99676.00;;;16.89;41.33
74936;BME280;63501;55.570;37.488;2023-05-14T06:56:24;99673.19;;;17.12;40.73
74936;BME280;63501;55.570;37.488;2023-05-14T06:58:51;99673.59;;;17.31;40.25
74936;BME280;63501;55.570;37.488;2023-05-14T07:01:18;99674.34;;;17.51;39.97
74936;BME280;63501;55.570;37.488;2023-05-14T07:03:47;99671.03;;;17.56;39.51
74936;BME280;63501;55.570;37.488;2023-05-14T07:06:14;99679.91;;;17.35;40.05
74936;BME280;63501;55.570;37.488;2023-05-14T07:08:43;99677.53;;;17.13;39.99
74936;BME280;63501;55.570;37.488;2023-05-14T07:11:10;99686.91;;;17.03;39.71
74936;BME280;63501;55.570;37.488;2023-05-14T07:13:39;99701.88;;;16.93;40.10
74936;BME280;63501;55.570;37.488;2023-05-14T07:16:07;99690.22;;;16.78;40.25
74936;BME280;63501;55.570;37.488;2023-05-14T07:18:34;99702.66;;;16.74;39.59
74936;BME280;63501;55.570;37.488;2023-05-14T07:21:03;99701.88;;;16.73;39.96
74936;BME280;63501;55.570;37.488;2023-05-14T07:23:31;99707.47;;;16.70;39.49
74936;BME280;63501;55.570;37.488;2023-05-14T07:25:58;99710.25;;;16.70;39.26
74936;BME280;63501;55.570;37.488;2023-05-14T07:28:25;99710.25;;;16.70;38.93
74936;BME280;63501;55.570;37.488;2023-05-14T07:30:52;99709.63;;;16.62;39.51
74936;BME280;63501;55.570;37.488;2023-05-14T07:33:20;99711.97;;;16.63;39.19
74936;BME280;63501;55.570;37.488;2023-05-14T07:35:47;99713.50;;;16.68;39.17
74936;BME280;63501;55.570;37.488;2023-05-14T07:38:16;99705.66;;;16.83;38.53
74936;BME280;63501;55.570;37.488;2023-05-14T07:40:43;99708.81;;;17.05;38.66
74936;BME280;63501;55.570;37.488;2023-05-14T07:43:10;99713.78;;;17.17;38.52
74936;BME280;63501;55.570;37.488;2023-05-14T07:45:37;99713.22;;;17.26;37.92
74936;BME280;63501;55.570;37.488;2023-05-14T07:48:04;99702.66;;;17.53;37.59
74936;BME280;63501;55.570;37.488;2023-05-14T07:50:32;99705.91;;;17.88;37.33
74936;BME280;63501;55.570;37.488;2023-05-14T07:52:59;99704.78;;;18.02;37.06
74936;BME280;63501;55.570;37.488;2023-05-14T07:55:27;99699.88;;;18.38;36.55
74936;BME280;63501;55.570;37.488;2023-05-14T07:57:54;99704.25;;;18.56;36.17
74936;BME280;63501;55.570;37.488;2023-05-14T08:00:21;99701.63;;;18.48;36.26
74936;BME280;63501;55.570;37.488;2023-05-14T08:02:48;99703.22;;;18.33;36.57
74936;BME280;63501;55.570;37.488;2023-05-14T08:05:16;99701.19;;;18.17;36.47
74936;BME280;63501;55.570;37.488;2023-05-14T08:07:43;99713.47;;;18.07;36.13
74936;BME280;63501;55.570;37.488;2023-05-14T08:10:10;99709.16;;;18.03;36.24
74936;BME280;63501;55.570;37.488;2023-05-14T08:12:39;99722.16;;;17.93;36.32
74936;BME280;63501;55.570;37.488;2023-05-14T08:15:08;99718.75;;;17.85;35.81
74936;BME280;63501;55.570;37.488;2023-05-14T08:17:35;99715.78;;;17.92;35.82
74936;BME280;63501;55.570;37.488;2023-05-14T08:20:03;99706.78;;;18.01;35.96
74936;BME280;63501;55.570;37.488;2023-05-14T08:22:32;99711.53;;;18.20;35.76
74936;BME280;63501;55.570;37.488;2023-05-14T08:24:59;99705.22;;;18.33;35.39
74936;BME280;63501;55.570;37.488;2023-05-14T08:27:29;99698.31;;;18.54;35.06
74936;BME280;63501;55.570;37.488;2023-05-14T08:29:58;99702.41;;;18.65;34.90
74936;BME280;63501;55.570;37.488;2023-05-14T08:32:25;99698.38;;;18.83;34.81
74936;BME280;63501;55.570;37.488;2023-05-14T08:34:52;99703.44;;;18.88;34.79
74936;BME280;63501;55.570;37.488;2023-05-14T08:37:19;99700.88;;;18.93;34.58
74936;BME280;63501;55.570;37.488;2023-05-14T08:39:46;99704.63;;;19.03;34.71
74936;BME280;63501;55.570;37.488;2023-05-14T08:42:14;99692.63;;;19.02;34.31
74936;BME280;63501;55.570;37.488;2023-05-14T08:44:47;99693.34;;;19.19;34.44
74936;BME280;63501;55.570;37.488;2023-05-14T08:47:17;99697.53;;;19.40;33.71
74936;BME280;63501;55.570;37.488;2023-05-14T08:49:52;99692.47;;;19.64;33.47
74936;BME280;63501;55.570;37.488;2023-05-14T08:52:21;99692.91;;;20.01;33.42
74936;BME280;63501;55.570;37.488;2023-05-14T08:54:50;99691.31;;;20.25;33.13
74936;BME280;63501;55.570;37.488;2023-05-14T08:57:19;99691.88;;;20.33;32.16
74936;BME280;63501;55.570;37.488;2023-05-14T08:59:49;99692.19;;;20.60;31.78
74936;BME280;63501;55.570;37.488;2023-05-14T09:02:19;99684.91;;;21.07;31.79
74936;BME280;63501;55.570;37.488;2023-05-14T09:04:50;99679.72;;;21.49;30.72
74936;BME280;63501;55.570;37.488;2023-05-14T09:07:17;99676.59;;;21.47;30.65
74936;BME280;63501;55.570;37.488;2023-05-14T09:09:45;99672.69;;;21.23;31.13
74936;BME280;63501;55.570;37.488;2023-05-14T09:12:13;99681.53;;;21.34;30.92
74936;BME280;63501;55.570;37.488;2023-05-14T09:14:40;99679.94;;;21.11;31.54
74936;BME280;63501;55.570;37.488;2023-05-14T09:17:07;99688.31;;;20.67;31.62
74936;BME280;63501;55.570;37.488;2023-05-14T09:19:38;99687.06;;;20.21;31.99
74936;BME280;63501;55.570;37.488;2023-05-14T09:22:08;99681.22;;;20.02;32.27
74936;BME280;63501;55.570;37.488;2023-05-14T09:24:35;99681.69;;;20.01;32.06
74936;BME280;63501;55.570;37.488;2023-05-14T09:27:04;99681.34;;;20.12;31.54
74936;BME280;63501;55.570;37.488;2023-05-14T09:29:31;99685.72;;;20.13;32.38
74936;BME280;63501;55.570;37.488;2023-05-14T09:31:59;99685.06;;;19.83;31.88
74936;BME280;63501;55.570;37.488;2023-05-14T09:34:31;99681.19;;;19.51;32.43
74936;BME280;63501;55.570;37.488;2023-05-14T09:37:00;99683.81;;;19.29;32.87
74936;BME280;63501;55.570;37.488;2023-05-14T09:39:28;99690.72;;;19.12;32.94
74936;BME280;63501;55.570;37.488;2023-05-14T09:41:56;99691.03;;;19.01;32.24
74936;BME280;63501;55.570;37.488;2023-05-14T09:44:23;99690.38;;;18.97;32.94
74936;BME280;63501;55.570;37.488;2023-05-14T09:46:51;99687.34;;;19.05;33.02
74936;BME280;63501;55.570;37.488;2023-05-14T09:49:19;99681.78;;;19.17;32.91
74936;BME280;63501;55.570;37.488;2023-05-14T09:51:47;99688.47;;;19.36;32.80
74936;BME280;63501;55.570;37.488;2023-05-14T09:54:15;99684.09;;;19.48;32.91
74936;BME280;63501;55.570;37.488;2023-05-14T09:56:43;99681.53;;;19.53;32.68
74936;BME280;63501;55.570;37.488;2023-05-14T09:59:10;99686.63;;;19.59;32.53
74936;BME280;63501;55.570;37.488;2023-05-14T10:01:37;99677.63;;;19.64;32.14
74936;BME280;63501;55.570;37.488;2023-05-14T10:04:08;99683.03;;;19.84;32.66
74936;BME280;63501;55.570;37.488;2023-05-14T10:06:37;99680.00;;;20.16;32.16
74936;BME280;63501;55.570;37.488;2023-05-14T10:09:09;99683.31;;;20.49;31.85
74936;BME280;63501;55.570;37.488;2023-05-14T10:11:43;99681.19;;;20.75;31.40
74936;BME280;63501;55.570;37.488;2023-05-14T10:14:13;99678.56;;;20.94;31.59
74936;BME280;63501;55.570;37.488;2023-05-14T10:16:46;99671.50;;;21.11;31.58
74936;BME280;63501;55.570;37.488;2023-05-14T10:19:16;99674.84;;;21.41;30.84
74936;BME280;63501;55.570;37.488;2023-05-14T10:21:46;99669.81;;;21.35;31.04
74936;BME280;63501;55.570;37.488;2023-05-14T10:24:13;99670.19;;;21.25;31.10
74936;BME280;63501;55.570;37.488;2023-05-14T10:26:43;99671.47;;;21.55;30.24
74936;BME280;63501;55.570;37.488;2023-05-14T10:29:11;99662.94;;;22.08;29.82
74936;BME280;63501;55.570;37.488;2023-05-14T10:31:49;99661.63;;;21.90;30.33
74936;BME280;63501;55.570;37.488;2023-05-14T10:34:34;99670.06;;;21.50;30.21
74936;BME280;63501;55.570;37.488;2023-05-14T10:37:03;99670.97;;;21.03;31.11
74936;BME280;63501;55.570;37.488;2023-05-14T10:39:45;99677.88;;;20.68;30.65
74936;BME280;63501;55.570;37.488;2023-05-14T10:42:16;99676.22;;;20.45;31.35
74936;BME280;63501;55.570;37.488;2023-05-14T10:44:49;99679.41;;;20.34;31.77
74936;BME280;63501;55.570;37.488;2023-05-14T10:47:17;99678.84;;;20.26;31.62
74936;BME280;63501;55.570;37.488;2023-05-14T10:49:44;99683.34;;;20.24;31.31
74936;BME280;63501;55.570;37.488;2023-05-14T10:52:15;99669.28;;;20.49;30.85
74936;BME280;63501;55.570;37.488;2023-05-14T10:54:47;99671.47;;;21.55;30.89
74936;BME280;63501;55.570;37.488;2023-05-14T10:57:17;99660.03;;;21.80;30.00
74936;BME280;63501;55.570;37.488;2023-05-14T10:59:46;99660.41;;;21.60;30.46
74936;BME280;63501;55.570;37.488;2023-05-14T11:02:24;99665.94;;;21.20;31.03
74936;BME280;63501;55.570;37.488;2023-05-14T11:04:53;99666.50;;;20.71;30.97
74936;BME280;63501;55.570;37.488;2023-05-14T11:07:23;99671.28;;;20.36;31.36
74936;BME280;63501;55.570;37.488;2023-05-14T11:09:51;99664.72;;;20.17;31.11
74936;BME280;63501;55.570;37.488;2023-05-14T11:12:20;99676.81;;;20.14;31.49
74936;BME280;63501;55.570;37.488;2023-05-14T11:14:47;99672.91;;;20.12;31.84
74936;BME280;63501;55.570;37.488;2023-05-14T11:17:14;99664.38;;;20.15;31.38
74936;BME280;63501;55.570;37.488;2023-05-14T11:19:42;99677.75;;;20.11;31.39
74936;BME280;63501;55.570;37.488;2023-05-14T11:22:10;99680.00;;;19.91;31.47
74936;BME280;63501;55.570;37.488;2023-05-14T11:24:39;99670.81;;;19.77;32.02
74936;BME280;63501;55.570;37.488;2023-05-14T11:27:07;99667.56;;;19.66;31.65
74936;BME280;63501;55.570;37.488;2023-05-14T11:29:36;99666.94;;;19.46;32.07
74936;BME280;63501;55.570;37.488;2023-05-14T11:32:04;99669.72;;;19.33;32.24
74936;BME280;63501;55.570;37.488;2023-05-14T11:34:32;99667.78;;;19.30;32.48
74936;BME280;63501;55.570;37.488;2023-05-14T11:37:04;99658.72;;;19.39;32.23
74936;BME280;63501;55.570;37.488;2023-05-14T11:39:31;99662.22;;;19.55;32.33
74936;BME280;63501;55.570;37.488;2023-05-14T11:42:01;99666.66;;;19.95;31.89
74936;BME280;63501;55.570;37.488;2023-05-14T11:44:29;99655.81;;;20.31;31.45
74936;BME280;63501;55.570;37.488;2023-05-14T11:46:58;99651.06;;;20.54;31.39
74936;BME280;63501;55.570;37.488;2023-05-14T11:49:26;99653.69;;;20.48;31.80
74936;BME280;63501;55.570;37.488;2023-05-14T11:51:57;99656.28;;;20.17;31.80
74936;BME280;63501;55.570;37.488;2023-05-14T11:54:25;99659.81;;;19.83;31.62
74936;BME280;63501;55.570;37.488;2023-05-14T11:56:54;99659.34;;;19.59;32.27
74936;BME280;63501;55.570;37.488;2023-05-14T11:59:23;99665.34;;;19.32;32.58
74936;BME280;63501;55.570;37.488;2023-05-14T12:01:50;99667.28;;;19.06;32.94
74936;BME280;63501;55.570;37.488;2023-05-14T12:04:19;99668.59;;;18.89;33.02
74936;BME280;63501;55.570;37.488;2023-05-14T12:06:47;99672.66;;;18.71;33.45
74936;BME280;63501;55.570;37.488;2023-05-14T12:09:15;99669.66;;;18.62;33.86
74936;BME280;63501;55.570;37.488;2023-05-14T12:11:44;99661.00;;;18.57;33.40
74936;BME280;63501;55.570;37.488;2023-05-14T12:14:13;99668.28;;;18.54;33.50
74936;BME280;63501;55.570;37.488;2023-05-14T12:16:40;99664.78;;;18.50;33.99
74936;BME280;63501;55.570;37.488;2023-05-14T12:19:08;99660.34;;;18.53;33.68
74936;BME280;63501;55.570;37.488;2023-05-14T12:21:38;99670.56;;;18.59;33.68
74936;BME280;63501;55.570;37.488;2023-05-14T12:24:08;99662.84;;;18.63;33.96
74936;BME280;63501;55.570;37.488;2023-05-14T12:26:37;99668.47;;;18.63;33.68
74936;BME280;63501;55.570;37.488;2023-05-14T12:29:04;99668.00;;;18.65;33.75
74936;BME280;63501;55.570;37.488;2023-05-14T12:31:33;99666.88;;;18.62;33.82
74936;BME280;63501;55.570;37.488;2023-05-14T12:34:01;99663.56;;;18.67;34.00
74936;BME280;63501;55.570;37.488;2023-05-14T12:36:28;99670.19;;;18.73;33.82
74936;BME280;63501;55.570;37.488;2023-05-14T12:38:59;99659.47;;;18.85;34.12
74936;BME280;63501;55.570;37.488;2023-05-14T12:41:28;99662.44;;;18.94;33.80
74936;BME280;63501;55.570;37.488;2023-05-14T12:43:56;99667.06;;;19.00;34.06
74936;BME280;63501;55.570;37.488;2023-05-14T12:46:25;99654.84;;;19.07;33.41
74936;BME280;63501;55.570;37.488;2023-05-14T12:48:52;99660.94;;;19.18;33.30
74936;BME280;63501;55.570;37.488;2023-05-14T12:51:20;99659.75;;;19.32;33.43
74936;BME280;63501;55.570;37.488;2023-05-14T12:53:47;99659.84;;;19.41;33.13
74936;BME280;63501;55.570;37.488;2023-05-14T12:56:16;99661.88;;;19.41;32.59